Time;durP1;ratioP1;P1;durP2;ratioP2;P2;SDS_P1;SDS_P2;PMS_P1;PMS_P2;Temp;Humidity;BMP_temperature;BMP_pressure;BME280_temperature;BME280_humidity;BME280_pressure;Samples;Min_cycle;Max_cycle;Signal;HPM_P1;HPM_P2
2023/11/24 00:01:16;;;;;;;1.60;1.10;;;10.10;98.20;;;;;;5028739;28;21156;-80
2023/11/24 00:03:44;;;;;;;1.60;1.10;;;10.10;98.20;;;;;;5047770;28;20473;-82
2023/11/24 00:06:12;;;;;;;1.60;1.13;;;10.10;98.20;;;;;;5029072;28;20486;-80
2023/11/24 00:08:39;;;;;;;1.60;1.00;;;10.10;98.20;;;;;;5045008;28;20558;-82
2023/11/24 00:11:06;;;;;;;1.60;1.10;;;10.00;98.20;;;;;;5026952;28;20497;-81
2023/11/24 00:13:33;;;;;;;1.60;1.10;;;10.00;98.20;;;;;;5047486;28;20615;-80
2023/11/24 00:15:59;;;;;;;1.60;1.20;;;10.00;98.20;;;;;;5024296;28;20617;-82
2023/11/24 00:18:27;;;;;;;1.60;1.10;;;10.00;98.20;;;;;;5046940;28;20543;-82
2023/11/24 00:20:55;;;;;;;1.60;1.10;;;10.00;98.20;;;;;;5023945;28;20531;-83
2023/11/24 00:23:23;;;;;;;1.60;1.10;;;10.00;98.20;;;;;;5042750;28;20464;-78
2023/11/24 00:25:50;;;;;;;2.33;2.13;;;10.00;98.20;;;;;;5022038;28;20485;-79
2023/11/24 00:28:18;;;;;;;1.60;1.10;;;10.00;98.20;;;;;;5050007;28;20464;-80
2023/11/24 00:30:45;;;;;;;1.60;1.10;;;10.00;98.20;;;;;;5034187;28;20487;-82
2023/11/24 00:33:12;;;;;;;1.60;1.10;;;9.90;98.20;;;;;;5010509;28;20464;-80
2023/11/24 00:35:39;;;;;;;1.63;1.10;;;9.90;98.20;;;;;;5013306;28;20479;-80
2023/11/24 00:38:08;;;;;;;1.60;1.03;;;9.90;98.20;;;;;;5016186;28;20487;-79
2023/11/24 00:40:35;;;;;;;1.60;1.20;;;9.90;98.20;;;;;;5014313;28;20479;-79
2023/11/24 00:43:02;;;;;;;1.60;1.10;;;9.90;98.20;;;;;;5018077;28;20511;-79
2023/11/24 00:45:29;;;;;;;1.60;1.10;;;9.90;98.20;;;;;;5014088;28;20483;-79
2023/11/24 00:47:56;;;;;;;1.60;1.10;;;9.90;98.20;;;;;;5015392;28;22439;-81
2023/11/24 00:50:23;;;;;;;1.60;1.10;;;9.90;98.20;;;;;;5014122;28;20484;-80
2023/11/24 00:52:49;;;;;;;1.70;1.20;;;9.90;98.20;;;;;;5019368;28;20517;-79
2023/11/24 00:55:18;;;;;;;1.67;1.20;;;9.80;98.20;;;;;;5012639;28;20483;-79
2023/11/24 00:57:44;;;;;;;1.60;1.10;;;9.80;98.20;;;;;;5018465;28;20574;-80
2023/11/24 01:00:12;;;;;;;1.60;1.13;;;9.80;98.20;;;;;;5013336;28;20475;-78
2023/11/24 01:02:39;;;;;;;1.60;1.10;;;9.80;98.20;;;;;;5017902;28;20495;-79
2023/11/24 01:05:09;;;;;;;1.60;1.10;;;9.80;98.20;;;;;;5013467;28;20558;-80
2023/11/24 01:07:36;;;;;;;1.60;1.10;;;9.80;98.20;;;;;;5016921;28;20575;-79
2023/11/24 01:10:03;;;;;;;1.60;1.10;;;9.70;98.20;;;;;;5014411;28;20474;-78
2023/11/24 01:12:31;;;;;;;1.60;1.03;;;9.70;98.20;;;;;;5016610;28;20486;-79
2023/11/24 01:14:58;;;;;;;1.60;1.20;;;9.70;98.20;;;;;;5013613;28;20476;-80
2023/11/24 01:17:24;;;;;;;1.60;1.10;;;9.70;98.20;;;;;;5014987;28;20491;-79
2023/11/24 01:19:51;;;;;;;1.60;1.20;;;9.70;98.20;;;;;;5015392;28;20892;-79
2023/11/24 01:22:19;;;;;;;1.60;1.20;;;9.70;98.20;;;;;;5004674;28;20475;-80
2023/11/24 01:24:47;;;;;;;1.60;1.10;;;9.70;98.20;;;;;;5011923;28;20472;-83
2023/11/24 01:27:14;;;;;;;1.60;1.20;;;9.70;98.20;;;;;;5005383;28;20480;-82
2023/11/24 01:29:42;;;;;;;1.60;1.17;;;9.70;98.20;;;;;;5016735;28;20657;-82
2023/11/24 01:32:08;;;;;;;1.60;1.10;;;9.60;98.20;;;;;;5012775;28;20480;-80
2023/11/24 01:34:35;;;;;;;1.60;1.10;;;9.60;98.20;;;;;;5017947;28;20468;-82
2023/11/24 01:37:04;;;;;;;1.60;1.20;;;9.60;98.20;;;;;;5000468;28;20889;-81
2023/11/24 01:39:30;;;;;;;1.60;1.10;;;9.60;98.20;;;;;;5003952;28;20479;-80
2023/11/24 01:41:58;;;;;;;1.60;1.10;;;9.60;98.20;;;;;;5000238;28;21764;-80
2023/11/24 01:44:24;;;;;;;1.60;1.20;;;9.50;98.20;;;;;;5015178;28;20482;-81
2023/11/24 01:46:54;;;;;;;1.60;1.10;;;9.50;98.20;;;;;;5005860;28;21050;-80
2023/11/24 01:49:21;;;;;;;1.60;1.10;;;9.40;98.20;;;;;;5009832;28;20501;-81
2023/11/24 01:51:49;;;;;;;1.60;1.10;;;9.30;98.20;;;;;;5005329;28;21022;-83
2023/11/24 01:54:18;;;;;;;1.60;1.20;;;9.30;98.20;;;;;;5019278;28;20468;-80
2023/11/24 01:56:46;;;;;;;1.70;1.20;;;9.20;98.20;;;;;;5003289;28;20476;-80
2023/11/24 01:59:14;;;;;;;1.60;1.20;;;9.20;98.20;;;;;;5009079;28;20555;-79
2023/11/24 02:01:41;;;;;;;1.60;1.20;;;9.10;98.20;;;;;;4999508;28;20787;-81
2023/11/24 02:04:10;;;;;;;1.60;1.20;;;9.10;98.20;;;;;;5003714;28;20476;-81
2023/11/24 02:06:37;;;;;;;1.63;1.20;;;9.10;98.20;;;;;;5010091;28;20562;-79
2023/11/24 02:09:04;;;;;;;1.67;1.30;;;9.00;98.20;;;;;;5020315;28;20537;-81
2023/11/24 02:11:31;;;;;;;1.60;1.20;;;9.00;98.20;;;;;;4992512;28;20484;-79
2023/11/24 02:13:58;;;;;;;1.60;1.17;;;9.00;98.20;;;;;;5011252;28;20464;-82
2023/11/24 02:16:24;;;;;;;1.60;1.10;;;9.00;98.20;;;;;;4998011;28;20491;-80
2023/11/24 02:18:51;;;;;;;1.60;1.20;;;9.00;98.20;;;;;;5020765;28;20469;-81
2023/11/24 02:21:19;;;;;;;1.60;1.13;;;9.00;98.20;;;;;;4995812;28;20548;-81
2023/11/24 02:23:48;;;;;;;1.60;1.20;;;8.90;98.20;;;;;;5008935;28;20465;-80
2023/11/24 02:26:14;;;;;;;1.60;1.20;;;8.90;98.20;;;;;;4998083;28;20492;-80
2023/11/24 02:28:42;;;;;;;1.60;1.10;;;8.90;98.20;;;;;;5012895;28;20476;-81
2023/11/24 02:31:09;;;;;;;1.60;1.20;;;8.80;98.20;;;;;;5003214;28;20519;-82
2023/11/24 02:33:40;;;;;;;1.60;1.20;;;8.80;98.20;;;;;;5009220;28;20472;-81
2023/11/24 02:36:16;;;;;;;1.60;1.10;;;8.70;98.20;;;;;;4996405;28;20860;-83
2023/11/24 02:38:45;;;;;;;1.60;1.20;;;8.70;98.20;;;;;;5011987;28;20462;-80
2023/11/24 02:41:13;;;;;;;1.67;1.20;;;8.70;98.20;;;;;;5000414;28;20523;-81
2023/11/24 02:43:40;;;;;;;1.63;1.30;;;8.70;98.20;;;;;;5023083;28;20474;-81
2023/11/24 02:46:07;;;;;;;1.60;1.13;;;8.70;98.20;;;;;;5000172;28;20613;-82
2023/11/24 02:48:34;;;;;;;1.60;1.10;;;8.60;98.20;;;;;;5007782;28;20457;-81
2023/11/24 02:51:01;;;;;;;1.60;1.10;;;8.60;98.20;;;;;;5003178;28;20575;-80
2023/11/24 02:53:27;;;;;;;1.60;1.20;;;8.50;98.20;;;;;;5025814;28;20464;-80
2023/11/24 02:55:55;;;;;;;1.60;1.20;;;8.50;98.20;;;;;;5001775;28;20884;-80
2023/11/24 02:58:26;;;;;;;1.60;1.10;;;8.50;98.20;;;;;;5023578;28;20456;-82
2023/11/24 03:00:54;;;;;;;1.60;1.10;;;8.50;98.20;;;;;;4989524;28;20461;-81
2023/11/24 03:03:21;;;;;;;1.60;1.20;;;8.50;98.20;;;;;;5012344;28;20463;-79
2023/11/24 03:05:47;;;;;;;1.67;1.30;;;8.50;98.20;;;;;;5001310;28;20484;-80
2023/11/24 03:08:14;;;;;;;1.60;1.20;;;8.40;98.20;;;;;;5015188;28;20472;-83
2023/11/24 03:10:41;;;;;;;1.60;1.20;;;8.40;98.20;;;;;;5003102;28;20465;-79
2023/11/24 03:13:08;;;;;;;1.60;1.20;;;8.40;98.20;;;;;;5001315;28;20473;-82
2023/11/24 03:15:37;;;;;;;1.60;1.20;;;8.40;98.20;;;;;;5011386;28;20492;-80
2023/11/24 03:18:03;;;;;;;1.60;1.20;;;8.40;98.20;;;;;;5014679;28;20474;-82
2023/11/24 03:20:30;;;;;;;1.60;1.20;;;8.40;98.20;;;;;;5004131;28;20867;-80
2023/11/24 03:22:57;;;;;;;1.60;1.20;;;8.40;98.20;;;;;;5003412;28;20484;-80
2023/11/24 03:25:24;;;;;;;1.60;1.20;;;8.30;98.20;;;;;;5005976;28;20460;-82
2023/11/24 03:27:51;;;;;;;1.60;1.10;;;8.30;98.20;;;;;;4999333;28;20500;-79
2023/11/24 03:30:18;;;;;;;1.60;1.20;;;8.30;98.20;;;;;;5005108;28;20522;-81
2023/11/24 03:32:46;;;;;;;1.60;1.20;;;8.30;98.20;;;;;;5002670;28;20484;-80
2023/11/24 03:35:13;;;;;;;1.60;1.20;;;8.30;98.20;;;;;;5011228;28;20939;-77
2023/11/24 03:37:40;;;;;;;1.60;1.20;;;8.30;98.20;;;;;;4999323;28;20922;-82
2023/11/24 03:40:09;;;;;;;1.67;1.30;;;8.30;98.20;;;;;;5012631;28;20467;-82
2023/11/24 03:42:36;;;;;;;1.60;1.20;;;8.30;98.20;;;;;;5002392;28;20499;-81
2023/11/24 03:45:07;;;;;;;1.60;1.20;;;8.30;98.20;;;;;;5007247;28;20460;-79
2023/11/24 03:47:34;;;;;;;1.60;1.30;;;8.30;98.20;;;;;;5008921;28;20491;-83
2023/11/24 03:50:02;;;;;;;1.70;1.50;;;8.30;98.20;;;;;;5007520;28;20460;-79
2023/11/24 03:52:29;;;;;;;1.60;1.20;;;8.30;98.20;;;;;;5008656;28;20495;-78
2023/11/24 03:54:56;;;;;;;1.60;1.20;;;8.30;98.20;;;;;;5007562;28;20691;-82
2023/11/24 03:57:23;;;;;;;1.60;1.20;;;8.30;98.20;;;;;;5008107;28;20487;-81
2023/11/24 03:59:51;;;;;;;1.60;1.20;;;8.30;98.20;;;;;;5007572;28;20480;-81
2023/11/24 04:02:18;;;;;;;1.60;1.20;;;8.30;98.20;;;;;;5007785;28;20596;-81
2023/11/24 04:04:46;;;;;;;1.60;1.20;;;8.30;98.20;;;;;;5016778;28;20971;-80
2023/11/24 04:07:15;;;;;;;1.60;1.30;;;8.30;98.20;;;;;;5014426;28;20554;-78
2023/11/24 04:09:42;;;;;;;1.60;1.20;;;8.30;98.20;;;;;;5005826;28;20488;-80
2023/11/24 04:12:09;;;;;;;1.60;1.20;;;8.20;98.20;;;;;;5008755;28;20772;-81
2023/11/24 04:14:36;;;;;;;1.60;1.20;;;8.20;98.20;;;;;;5007905;28;20524;-82
2023/11/24 04:17:03;;;;;;;1.60;1.20;;;8.20;98.20;;;;;;5007228;28;20490;-82
2023/11/24 04:19:30;;;;;;;1.60;1.20;;;8.20;98.20;;;;;;5011956;28;20464;-79
2023/11/24 04:21:56;;;;;;;1.60;1.20;;;8.10;98.20;;;;;;4994376;28;20481;-82
2023/11/24 04:24:24;;;;;;;1.60;1.20;;;8.10;98.20;;;;;;5009401;28;20838;-79
2023/11/24 04:26:51;;;;;;;1.67;1.30;;;8.10;98.20;;;;;;5009682;28;20479;-80
2023/11/24 04:29:21;;;;;;;1.60;1.20;;;8.10;98.20;;;;;;5013144;28;20461;-80
2023/11/24 04:31:48;;;;;;;1.60;1.20;;;8.10;98.20;;;;;;5007887;28;21050;-80
2023/11/24 04:34:15;;;;;;;1.60;1.20;;;8.10;98.20;;;;;;5018093;28;20478;-79
2023/11/24 04:36:41;;;;;;;1.60;1.20;;;8.10;98.20;;;;;;5007446;28;20475;-79
2023/11/24 04:39:08;;;;;;;1.60;1.20;;;8.00;98.20;;;;;;5012032;28;20918;-80
2023/11/24 04:41:37;;;;;;;1.60;1.20;;;8.00;98.20;;;;;;5005057;28;20555;-79
2023/11/24 04:44:04;;;;;;;1.60;1.20;;;8.00;98.20;;;;;;5015684;28;20465;-82
2023/11/24 04:46:30;;;;;;;1.60;1.30;;;8.00;98.20;;;;;;5006751;28;20501;-79
2023/11/24 04:49:02;;;;;;;1.60;1.20;;;8.00;98.20;;;;;;5022487;28;20479;-80
2023/11/24 04:51:30;;;;;;;1.60;1.23;;;8.00;98.20;;;;;;5007144;28;20484;-80
2023/11/24 04:53:57;;;;;;;1.60;1.30;;;8.00;98.20;;;;;;5011939;28;20500;-79
2023/11/24 04:56:25;;;;;;;1.60;1.30;;;8.00;98.20;;;;;;4996976;28;21018;-80
2023/11/24 04:58:53;;;;;;;1.60;1.20;;;8.00;98.20;;;;;;5009135;28;20475;-79
2023/11/24 05:01:20;;;;;;;1.60;1.20;;;8.00;98.20;;;;;;5001573;28;20475;-83
2023/11/24 05:03:48;;;;;;;1.60;1.20;;;8.00;98.20;;;;;;5017779;28;20460;-79
2023/11/24 05:06:15;;;;;;;1.60;1.20;;;8.00;98.20;;;;;;4998384;28;20472;-80
2023/11/24 05:08:42;;;;;;;1.60;1.20;;;8.00;98.20;;;;;;5017334;28;20471;-80
2023/11/24 05:11:09;;;;;;;1.60;1.20;;;8.00;98.20;;;;;;4998108;28;20551;-80
2023/11/24 05:13:35;;;;;;;1.60;1.20;;;8.00;98.20;;;;;;5013452;28;20573;-79
2023/11/24 05:16:05;;;;;;;1.60;1.20;;;8.00;98.20;;;;;;5003135;28;20512;-81
2023/11/24 05:18:32;;;;;;;1.60;1.20;;;8.00;98.20;;;;;;5017652;28;20539;-81
2023/11/24 05:20:59;;;;;;;1.63;1.20;;;8.00;98.20;;;;;;4997432;28;20465;-79
2023/11/24 05:23:25;;;;;;;1.63;1.20;;;8.00;98.20;;;;;;5023390;28;20832;-79
2023/11/24 05:25:53;;;;;;;1.60;1.20;;;8.00;98.20;;;;;;4995714;28;20488;-79
2023/11/24 05:28:19;;;;;;;1.60;1.20;;;8.00;98.20;;;;;;5013963;28;20551;-82
2023/11/24 05:30:46;;;;;;;1.60;1.10;;;8.00;98.20;;;;;;5010804;28;20468;-81
2023/11/24 05:33:14;;;;;;;1.60;1.20;;;8.00;98.20;;;;;;5019939;28;20489;-80
2023/11/24 05:35:41;;;;;;;1.60;1.20;;;8.00;98.20;;;;;;5029948;28;20518;-81
2023/11/24 05:38:08;;;;;;;1.60;1.20;;;8.00;98.20;;;;;;5023532;28;20596;-80
2023/11/24 05:40:35;;;;;;;1.67;1.30;;;8.00;98.20;;;;;;5034193;28;20529;-80
2023/11/24 05:43:02;;;;;;;1.60;1.20;;;8.00;98.20;;;;;;5049414;22;20485;-83
2023/11/24 05:45:29;;;;;;;1.60;1.10;;;8.00;98.20;;;;;;5045007;28;20474;-85
2023/11/24 05:48:05;;;;;;;1.60;1.20;;;8.00;98.20;;;;;;5063681;28;20473;-82
2023/11/24 05:50:33;;;;;;;1.60;1.20;;;8.00;98.20;;;;;;5055777;28;20466;-83
2023/11/24 05:53:00;;;;;;;1.63;1.30;;;8.00;98.20;;;;;;5063940;28;20515;-83
2023/11/24 05:55:27;;;;;;;1.60;1.20;;;7.90;98.20;;;;;;5028165;28;20494;-84
2023/11/24 05:57:56;;;;;;;1.63;1.27;;;7.90;98.20;;;;;;5024242;28;21122;-84
2023/11/24 06:00:24;;;;;;;1.60;1.20;;;7.90;98.20;;;;;;5031214;28;20475;-83
2023/11/24 06:02:51;;;;;;;1.60;1.20;;;7.90;98.20;;;;;;5046390;28;20481;-84
2023/11/24 06:05:18;;;;;;;1.60;1.10;;;7.90;98.20;;;;;;5032714;28;20491;-83
2023/11/24 06:07:46;;;;;;;1.60;1.20;;;7.90;98.20;;;;;;5025057;28;20518;-85
2023/11/24 06:10:13;;;;;;;1.60;1.20;;;7.90;98.20;;;;;;5037779;28;20505;-82
2023/11/24 06:12:40;;;;;;;1.60;1.20;;;7.90;98.20;;;;;;5039821;28;20474;-83
2023/11/24 06:15:09;;;;;;;1.60;1.20;;;8.00;98.20;;;;;;5031108;28;20464;-81
2023/11/24 06:17:36;;;;;;;1.60;1.20;;;8.00;98.20;;;;;;5040092;28;20533;-83
2023/11/24 06:20:03;;;;;;;1.63;1.20;;;8.00;98.20;;;;;;5033232;28;20464;-84
2023/11/24 06:22:30;;;;;;;1.60;1.20;;;8.00;98.20;;;;;;5019043;28;20473;-80
2023/11/24 06:24:58;;;;;;;1.60;1.10;;;8.00;98.20;;;;;;5030718;28;20460;-81
2023/11/24 06:27:25;;;;;;;2.23;1.90;;;7.90;98.20;;;;;;5030421;28;20493;-82
2023/11/24 06:29:52;;;;;;;1.60;1.20;;;7.90;98.20;;;;;;5030409;28;20467;-81
2023/11/24 06:32:19;;;;;;;1.63;1.30;;;7.90;98.20;;;;;;5032510;28;20600;-80
2023/11/24 06:34:46;;;;;;;1.60;1.20;;;7.90;98.20;;;;;;5033881;28;20562;-81
2023/11/24 06:37:13;;;;;;;1.60;1.20;;;7.80;98.20;;;;;;5031356;28;20478;-81
2023/11/24 06:39:40;;;;;;;1.60;1.20;;;7.80;98.20;;;;;;5032755;28;20467;-81
2023/11/24 06:42:08;;;;;;;1.60;1.23;;;7.80;98.20;;;;;;5030411;28;20545;-82
2023/11/24 06:44:35;;;;;;;1.60;1.20;;;7.80;98.20;;;;;;5031271;28;21036;-81
2023/11/24 06:47:02;;;;;;;1.60;1.20;;;7.80;98.20;;;;;;5025748;28;20888;-81
2023/11/24 06:49:31;;;;;;;1.60;1.20;;;7.80;98.20;;;;;;5030795;28;20462;-81
2023/11/24 06:51:58;;;;;;;1.63;1.30;;;7.80;98.20;;;;;;5026840;28;20858;-82
2023/11/24 06:54:25;;;;;;;1.60;1.10;;;7.80;98.20;;;;;;5031322;28;20482;-75
2023/11/24 06:56:52;;;;;;;1.60;1.20;;;7.80;98.20;;;;;;5020899;28;20482;-75
2023/11/24 06:59:22;;;;;;;1.60;1.20;;;7.60;98.20;;;;;;5031077;28;20481;-74
2023/11/24 07:01:49;;;;;;;1.70;1.30;;;7.30;98.20;;;;;;5023239;28;20770;-73
2023/11/24 07:04:18;;;;;;;1.67;1.30;;;7.10;98.20;;;;;;5030743;28;21046;-74
2023/11/24 07:06:45;;;;;;;1.60;1.20;;;6.90;98.20;;;;;;5020010;28;20857;-75
2023/11/24 07:09:12;;;;;;;1.63;1.30;;;6.70;98.20;;;;;;5030486;28;20468;-77
2023/11/24 07:11:38;;;;;;;1.60;1.30;;;6.70;98.20;;;;;;5018698;28;20629;-78
2023/11/24 07:14:05;;;;;;;1.70;1.40;;;6.60;98.20;;;;;;5024118;28;20486;-78
2023/11/24 07:16:34;;;;;;;1.60;1.20;;;6.60;98.20;;;;;;5019342;28;20592;-79
2023/11/24 07:19:02;;;;;;;1.60;1.30;;;6.60;98.20;;;;;;5031252;28;20517;-79
2023/11/24 07:21:29;;;;;;;1.60;1.20;;;6.60;98.20;;;;;;5017212;28;20592;-81
2023/11/24 07:23:56;;;;;;;1.70;1.30;;;6.70;98.20;;;;;;5032546;28;20550;-79
2023/11/24 07:26:23;;;;;;;1.70;1.30;;;6.70;98.20;;;;;;5014685;28;20496;-80
2023/11/24 07:28:50;;;;;;;1.60;1.20;;;6.70;98.20;;;;;;5038843;28;20472;-79
2023/11/24 07:31:17;;;;;;;1.63;1.30;;;6.70;98.20;;;;;;5019532;28;20505;-78
2023/11/24 07:33:48;;;;;;;1.60;1.30;;;6.80;98.20;;;;;;5036791;28;20490;-80
2023/11/24 07:36:16;;;;;;;1.60;1.30;;;6.80;98.20;;;;;;5021554;28;20856;-76
2023/11/24 07:38:43;;;;;;;1.67;1.30;;;6.80;98.20;;;;;;5038306;28;20735;-76
2023/11/24 07:41:10;;;;;;;1.63;1.30;;;6.90;98.20;;;;;;5014126;28;20493;-73
2023/11/24 07:43:37;;;;;;;1.60;1.20;;;6.90;98.20;;;;;;5034256;28;20491;-75
2023/11/24 07:46:07;;;;;;;1.60;1.30;;;6.90;98.20;;;;;;5014295;28;20474;-73
2023/11/24 07:48:34;;;;;;;1.60;1.30;;;6.90;98.20;;;;;;5038232;28;20501;-72
2023/11/24 07:51:05;;;;;;;1.60;1.20;;;7.00;98.20;;;;;;5013223;28;20494;-74
2023/11/24 07:53:32;;;;;;;1.60;1.30;;;6.90;98.20;;;;;;5035585;28;20984;-73
2023/11/24 07:55:59;;;;;;;1.60;1.20;;;6.90;98.20;;;;;;5011985;28;20974;-73
2023/11/24 07:58:28;;;;;;;1.60;1.30;;;6.90;98.20;;;;;;5038269;28;20477;-77
2023/11/24 08:00:55;;;;;;;1.60;1.30;;;7.00;98.20;;;;;;5010546;28;20522;-75
2023/11/24 08:03:24;;;;;;;1.60;1.30;;;7.00;98.20;;;;;;5037569;28;21024;-78
2023/11/24 08:05:52;;;;;;;2.23;2.03;;;7.00;98.20;;;;;;5014876;28;21199;-78
2023/11/24 08:08:22;;;;;;;1.63;1.20;;;7.00;98.20;;;;;;5040614;28;20968;-78
2023/11/24 08:11:14;;;;;;;1.60;1.20;;;6.90;98.20;;;;;;5019286;28;21016;-79
2023/11/24 08:13:42;;;;;;;1.67;1.33;;;6.90;98.20;;;;;;5025748;28;20541;-78
2023/11/24 08:16:09;;;;;;;1.63;1.23;;;7.00;98.20;;;;;;5014222;28;20471;-78
2023/11/24 08:18:36;;;;;;;1.60;1.30;;;7.00;98.20;;;;;;5037237;28;20474;-79
2023/11/24 08:21:03;;;;;;;1.80;1.60;;;6.90;98.20;;;;;;5013846;28;20506;-79
2023/11/24 08:23:31;;;;;;;1.60;1.20;;;6.90;98.20;;;;;;5037288;28;20510;-81
2023/11/24 08:25:58;;;;;;;1.60;1.20;;;6.90;98.20;;;;;;5010314;28;20559;-79
2023/11/24 08:28:26;;;;;;;1.60;1.20;;;6.90;98.20;;;;;;5035502;28;21344;-79
2023/11/24 08:30:55;;;;;;;1.60;1.30;;;6.90;98.20;;;;;;5012214;28;20840;-77
2023/11/24 08:34:01;;;;;;;1.60;1.20;;;7.00;98.20;;;;;;5037625;28;20569;-77
2023/11/24 08:37:06;;;;;;;1.60;1.30;;;7.00;98.20;;;;;;5010839;28;20477;-76
2023/11/24 08:39:38;;;;;;;1.60;1.20;;;7.10;98.20;;;;;;5028383;28;20473;-77
2023/11/24 08:42:06;;;;;;;1.70;1.30;;;7.10;98.20;;;;;;5013610;28;20931;-76
2023/11/24 08:44:33;;;;;;;1.60;1.27;;;7.10;98.20;;;;;;5025663;28;20490;-80
2023/11/24 08:47:00;;;;;;;1.60;1.20;;;7.10;98.20;;;;;;5020638;28;20475;-78
2023/11/24 08:49:27;;;;;;;1.60;1.20;;;7.10;98.20;;;;;;5029313;28;20463;-77
2023/11/24 08:51:54;;;;;;;1.60;1.20;;;7.10;98.20;;;;;;5021011;28;20525;-76
2023/11/24 08:54:22;;;;;;;1.60;1.20;;;7.10;98.20;;;;;;5032717;28;20582;-79
2023/11/24 08:57:14;;;;;;;1.60;1.30;;;7.00;98.20;;;;;;5019133;28;20470;-80
2023/11/24 08:59:49;;;;;;;1.60;1.30;;;6.90;98.20;;;;;;4977989;28;20501;-77
2023/11/24 09:02:16;;;;;;;1.60;1.20;;;6.90;98.20;;;;;;4971858;28;20572;-80
2023/11/24 09:04:44;;;;;;;1.60;1.20;;;7.00;98.20;;;;;;5016382;28;20487;-80
2023/11/24 09:07:12;;;;;;;1.63;1.30;;;7.10;98.20;;;;;;5020821;28;20482;-80
2023/11/24 09:09:39;;;;;;;1.60;1.20;;;7.30;98.20;;;;;;5025899;28;21338;-79
2023/11/24 09:12:06;;;;;;;1.70;1.30;;;7.50;98.20;;;;;;5012231;28;21001;-79
2023/11/24 09:14:38;;;;;;;1.60;1.20;;;7.60;98.20;;;;;;5007357;28;20498;-79
2023/11/24 09:17:05;;;;;;;1.60;1.20;;;7.80;98.20;;;;;;5001291;28;20617;-79
2023/11/24 09:19:33;;;;;;;1.60;1.20;;;7.70;98.20;;;;;;5008274;28;20480;-79
2023/11/24 09:22:29;;;;;;;1.60;1.10;;;7.80;98.20;;;;;;4996116;28;20531;-78
2023/11/24 09:24:56;;;;;;;1.60;1.20;;;7.80;98.20;;;;;;4999368;28;20456;-78
2023/11/24 09:27:24;;;;;;;1.60;1.20;;;7.80;98.20;;;;;;5005602;28;20487;-79
2023/11/24 09:29:52;;;;;;;1.60;1.27;;;7.80;98.20;;;;;;5002599;28;20519;-80
2023/11/24 09:32:19;;;;;;;1.60;1.20;;;7.80;98.20;;;;;;4990415;28;20796;-79
2023/11/24 09:34:48;;;;;;;1.60;1.23;;;7.80;98.20;;;;;;5000859;28;20510;-79
2023/11/24 09:37:15;;;;;;;1.60;1.20;;;7.90;98.20;;;;;;5003720;28;20883;-78
2023/11/24 09:39:42;;;;;;;1.60;1.20;;;8.00;98.20;;;;;;5007129;28;20472;-78
2023/11/24 09:42:11;;;;;;;1.60;1.20;;;8.10;98.20;;;;;;5004401;28;20490;-79
2023/11/24 09:44:40;;;;;;;1.70;1.30;;;8.10;98.20;;;;;;5008201;28;20480;-79
2023/11/24 09:47:10;;;;;;;1.60;1.20;;;8.10;98.20;;;;;;5000481;28;21035;-77
2023/11/24 09:49:40;;;;;;;1.60;1.20;;;8.00;98.20;;;;;;5001655;28;20488;-75
2023/11/24 09:52:07;;;;;;;1.60;1.20;;;7.90;98.20;;;;;;4999892;28;20856;-73
2023/11/24 09:54:44;;;;;;;1.60;1.20;;;7.70;98.20;;;;;;5007314;28;20877;-75
2023/11/24 09:57:50;;;;;;;1.63;1.27;;;7.40;98.20;;;;;;5016615;28;20552;-75
2023/11/24 10:00:19;;;;;;;1.60;1.20;;;7.10;98.20;;;;;;5021754;28;20463;-75
2023/11/24 10:02:48;;;;;;;1.60;1.20;;;7.00;98.20;;;;;;5010723;28;20570;-76
2023/11/24 10:05:18;;;;;;;1.60;1.20;;;6.90;98.20;;;;;;4999819;28;20733;-74
2023/11/24 10:07:47;;;;;;;1.70;1.30;;;6.80;98.20;;;;;;5022032;28;21004;-75
2023/11/24 10:10:22;;;;;;;1.60;1.20;;;6.80;98.20;;;;;;5020853;28;20539;-75
2023/11/24 10:12:50;;;;;;;1.67;1.30;;;6.70;98.20;;;;;;5025262;28;20485;-75
2023/11/24 10:15:18;;;;;;;1.63;1.30;;;6.70;98.20;;;;;;5022023;28;20469;-75
2023/11/24 10:17:45;;;;;;;1.60;1.20;;;6.70;98.20;;;;;;5010355;28;20487;-77
2023/11/24 10:20:18;;;;;;;1.63;1.30;;;6.60;98.20;;;;;;4998596;28;20464;-78
2023/11/24 10:22:45;;;;;;;1.67;1.30;;;6.70;98.20;;;;;;5006420;28;20472;-75
2023/11/24 10:25:12;;;;;;;1.60;1.30;;;6.70;98.20;;;;;;4998014;28;20965;-77
2023/11/24 10:27:41;;;;;;;1.60;1.20;;;6.80;98.20;;;;;;5007627;28;20491;-77
2023/11/24 10:30:09;;;;;;;1.60;1.20;;;6.80;98.20;;;;;;4996455;28;20539;-78
2023/11/24 10:32:36;;;;;;;1.60;1.20;;;6.90;98.20;;;;;;5023690;28;20505;-79
2023/11/24 10:35:04;;;;;;;1.60;1.20;;;7.10;98.20;;;;;;5027476;28;20513;-80
2023/11/24 10:37:33;;;;;;;1.60;1.20;;;7.10;98.20;;;;;;5031631;28;20501;-80
2023/11/24 10:40:05;;;;;;;1.60;1.20;;;7.10;98.20;;;;;;5026882;28;20460;-79
2023/11/24 10:42:33;;;;;;;1.60;1.30;;;7.00;98.20;;;;;;5013262;28;20483;-80
2023/11/24 10:45:07;;;;;;;1.60;1.30;;;7.00;98.20;;;;;;5003785;28;20468;-80
2023/11/24 10:47:38;;;;;;;1.60;1.20;;;7.00;98.20;;;;;;5005653;28;20475;-79
2023/11/24 10:50:12;;;;;;;1.60;1.20;;;7.00;98.20;;;;;;5003556;28;20464;-78
2023/11/24 10:53:17;;;;;;;1.67;1.20;;;7.00;98.20;;;;;;5007613;28;20592;-80
2023/11/24 10:55:46;;;;;;;1.60;1.20;;;7.10;98.20;;;;;;5012011;28;20495;-81
2023/11/24 10:58:14;;;;;;;1.60;1.20;;;7.20;98.20;;;;;;5008033;28;20515;-79
2023/11/24 11:00:41;;;;;;;1.60;1.20;;;7.20;98.20;;;;;;5010295;28;20606;-78
2023/11/24 11:03:12;;;;;;;1.60;1.17;;;7.30;98.20;;;;;;5038377;28;20576;-82
2023/11/24 11:05:58;;;;;;;1.60;1.20;;;7.30;98.20;;;;;;5031390;28;21019;-80
2023/11/24 11:08:34;;;;;;;1.70;1.30;;;7.40;98.20;;;;;;5017266;28;20538;-79
2023/11/24 11:11:45;;;;;;;1.60;1.20;;;7.40;98.20;;;;;;5017402;28;20568;-79
2023/11/24 11:14:13;;;;;;;1.63;1.30;;;7.50;98.20;;;;;;5036422;28;20525;-82
2023/11/24 11:16:40;;;;;;;1.60;1.20;;;7.50;98.20;;;;;;5026220;28;20552;-81
2023/11/24 11:19:30;;;;;;;1.60;1.20;;;7.50;98.20;;;;;;5034989;28;20556;-80
2023/11/24 11:21:59;;;;;;;1.63;1.20;;;7.40;98.20;;;;;;5017769;28;20893;-81
2023/11/24 11:24:31;;;;;;;1.60;1.20;;;7.40;98.20;;;;;;5026354;28;20492;-79
2023/11/24 11:27:33;;;;;;;1.60;1.30;;;7.50;98.20;;;;;;5036589;28;20564;-79
2023/11/24 11:30:00;;;;;;;1.67;1.30;;;7.50;98.20;;;;;;5037881;28;20462;-79
2023/11/24 11:32:27;;;;;;;1.60;1.20;;;7.70;98.20;;;;;;5029101;28;21021;-81
2023/11/24 11:34:54;;;;;;;1.60;1.20;;;7.80;98.20;;;;;;5031822;28;20519;-82
2023/11/24 11:37:22;;;;;;;1.60;1.20;;;7.90;98.20;;;;;;5018466;28;20596;-81
2023/11/24 11:39:57;;;;;;;1.63;1.27;;;7.90;98.20;;;;;;5027778;28;20478;-81
2023/11/24 11:42:32;;;;;;;1.60;1.10;;;7.90;98.20;;;;;;5018121;28;20474;-81
2023/11/24 11:45:09;;;;;;;1.60;1.20;;;8.00;98.20;;;;;;5031211;28;20465;-79
2023/11/24 11:47:50;;;;;;;1.60;1.20;;;8.00;98.20;;;;;;5035201;28;20524;-81
2023/11/24 11:50:20;;;;;;;1.63;1.20;;;7.90;98.20;;;;;;5029795;28;20554;-81
2023/11/24 11:52:48;;;;;;;1.60;1.20;;;7.90;98.20;;;;;;5032588;28;20601;-82
2023/11/24 11:55:19;;;;;;;1.60;1.20;;;7.80;98.20;;;;;;5030551;28;20970;-82
2023/11/24 11:57:55;;;;;;;1.60;1.20;;;7.70;98.20;;;;;;5037748;28;20870;-79
2023/11/24 12:00:26;;;;;;;1.63;1.20;;;7.60;98.20;;;;;;5029240;28;20565;-80
2023/11/24 12:02:56;;;;;;;1.63;1.30;;;7.40;98.20;;;;;;5038498;28;20754;-80
2023/11/24 12:05:23;;;;;;;1.60;1.20;;;7.30;98.20;;;;;;5030723;28;20455;-82
2023/11/24 12:07:51;;;;;;;1.60;1.20;;;7.30;98.20;;;;;;5033438;28;20852;-81
2023/11/24 12:10:22;;;;;;;1.63;1.30;;;7.20;98.20;;;;;;5027170;28;20465;-79
2023/11/24 12:12:48;;;;;;;1.60;1.20;;;7.10;98.20;;;;;;5035081;28;20553;-82
2023/11/24 12:15:17;;;;;;;1.60;1.20;;;7.00;98.20;;;;;;5032789;28;20529;-81
2023/11/24 12:17:44;;;;;;;1.60;1.20;;;6.90;98.20;;;;;;5015931;28;20486;-78
2023/11/24 12:20:14;;;;;;;1.60;1.20;;;6.70;98.20;;;;;;5024467;28;20562;-82
2023/11/24 12:22:43;;;;;;;1.60;1.20;;;6.60;98.20;;;;;;5037421;28;20478;-80
2023/11/24 12:25:12;;;;;;;1.60;1.20;;;6.60;98.20;;;;;;5026187;28;20557;-79
2023/11/24 12:27:48;;;;;;;1.67;1.33;;;6.60;98.20;;;;;;5030377;28;21467;-81
2023/11/24 12:30:16;;;;;;;1.60;1.30;;;6.70;98.20;;;;;;5026351;28;20501;-80
2023/11/24 12:35:19;;;;;;;1.63;1.30;;;6.90;98.20;;;;;;5197190;22;20551;-81
2023/11/24 12:37:54;;;;;;;1.60;1.30;;;7.10;98.20;;;;;;5056866;28;20484;-81
2023/11/24 12:40:23;;;;;;;1.63;1.20;;;7.30;98.20;;;;;;5048684;28;20599;-80
2023/11/24 12:42:53;;;;;;;1.60;1.20;;;7.40;98.20;;;;;;5043067;28;20486;-80
2023/11/24 12:45:21;;;;;;;1.60;1.20;;;7.60;98.20;;;;;;5030485;28;20493;-80
2023/11/24 12:47:48;;;;;;;1.60;1.20;;;7.70;98.20;;;;;;5027345;28;20485;-80
2023/11/24 12:50:20;;;;;;;1.63;1.20;;;7.80;98.20;;;;;;5020498;28;20463;-80
2023/11/24 12:52:47;;;;;;;1.60;1.20;;;7.80;98.20;;;;;;5026873;28;21079;-79
2023/11/24 12:55:14;;;;;;;1.60;1.20;;;7.80;98.20;;;;;;5024957;28;20530;-80
2023/11/24 12:57:43;;;;;;;1.60;1.30;;;7.80;98.20;;;;;;5027427;28;20478;-80
2023/11/24 13:00:14;;;;;;;1.60;1.30;;;7.90;98.20;;;;;;5021978;28;20914;-80
2023/11/24 13:02:41;;;;;;;1.60;1.20;;;7.90;98.20;;;;;;5030252;28;20512;-79
2023/11/24 13:05:10;;;;;;;1.60;1.20;;;8.00;98.20;;;;;;5023576;28;21104;-80
2023/11/24 13:07:37;;;;;;;1.60;1.20;;;8.10;98.20;;;;;;5024934;28;20481;-79
2023/11/24 13:10:09;;;;;;;1.60;1.20;;;8.10;98.20;;;;;;5021447;28;20503;-79